Accueil
METAR-TAF:

METAR-TAF

Aéroports :

Kimmirut, Nunavut, Canada

latitude: 62-51N, longitude: 069-53W, altitude: 53 m

Observation

Le bulletin a été fait il y a 1 heure et 12 minutes, à 20:00 UTC
Vent 5 kt de ouest, variant entre sud-ouest et ouest/nord-ouest
Température -3°C
Humidité 63%
Pression 1013 hPa
Visibilité: 24.1 km
Ciel couvert à une hauteur de 4100 ft
neige faible

METAR: CYLC 242000Z 26005KT 230V290 15SM -SN OVC041 M03/M09 A2990 RMK SC8 -2.8/-5.1/0.1/0 NIL LASTSTFD OBS/NEXT 251100Z SLP130

Heure: 17:12 (21:12 UTC)


TAF: absent

Observations et prévisions météorologiques de plus de 4000 aéroports (messages METAR et TAF).

Les stations disponibles sont représentées par des disques jaunes et rouges sur la carte.

Passer la souris dessus pour voir le nom de la station.

Cliquer dessus pour voir les observations et prévisions météorologiques.

Pour changer de carte: cliquez sur les boutons verts avec une croix noire pour zoomer, sur le bouton vert avec un tiret pour effectuer un zoom arrière, ou sur les flèches vertes pour les cartes adjacentes.


METAR-TAF: